sensor_id;sensor_type;location;lat;lon;timestamp;pressure;altitude;pressure_sealevel;temperature;humidity
45327;BME280;31062;49.678;24.560;2023-04-24T00:01:33;97717.09;;;10.59;56.13
45327;BME280;31062;49.678;24.560;2023-04-24T00:04:19;97628.28;;;9.97;57.19
45327;BME280;31062;49.678;24.560;2023-04-24T00:07:06;97573.44;;;9.65;57.01
45327;BME280;31062;49.678;24.560;2023-04-24T00:09:51;97720.16;;;10.63;56.84
45327;BME280;31062;49.678;24.560;2023-04-24T00:12:37;97579.09;;;9.67;56.28
45327;BME280;31062;49.678;24.560;2023-04-24T00:15:23;97759.16;;;10.86;56.60
45327;BME280;31062;49.678;24.560;2023-04-24T00:18:08;97538.66;;;9.42;56.47
45327;BME280;31062;49.678;24.560;2023-04-24T00:20:54;97738.03;;;10.81;56.49
45327;BME280;31062;49.678;24.560;2023-04-24T00:23:39;97723.47;;;10.71;56.42
45327;BME280;31062;49.678;24.560;2023-04-24T00:26:24;97730.47;;;10.72;56.76
45327;BME280;31062;49.678;24.560;2023-04-24T00:29:10;97732.69;;;10.64;56.62
45327;BME280;31062;49.678;24.560;2023-04-24T00:31:56;97541.75;;;9.27;56.77
45327;BME280;31062;49.678;24.560;2023-04-24T00:34:41;97732.91;;;10.37;57.42
45327;BME280;31062;49.678;24.560;2023-04-24T00:37:27;97705.06;;;10.16;57.55
45327;BME280;31062;49.678;24.560;2023-04-24T00:40:12;97742.13;;;10.30;57.87
45327;BME280;31062;49.678;24.560;2023-04-24T00:42:58;97538.28;;;8.98;58.26
45327;BME280;31062;49.678;24.560;2023-04-24T00:45:43;97700.44;;;9.99;59.05
45327;BME280;31062;49.678;24.560;2023-04-24T00:48:29;97528.22;;;8.74;59.02
45327;BME280;31062;49.678;24.560;2023-04-24T00:51:15;97559.94;;;8.92;59.46
45327;BME280;31062;49.678;24.560;2023-04-24T00:54:01;97640.88;;;9.21;59.54
45327;BME280;31062;49.678;24.560;2023-04-24T00:56:47;97695.06;;;9.72;59.49
45327;BME280;31062;49.678;24.560;2023-04-24T00:59:32;97703.63;;;9.96;59.55
45327;BME280;31062;49.678;24.560;2023-04-24T01:02:18;97596.19;;;9.25;59.12
45327;BME280;31062;49.678;24.560;2023-04-24T01:05:04;97723.91;;;9.98;59.63
45327;BME280;31062;49.678;24.560;2023-04-24T01:07:50;97530.97;;;8.74;60.13
45327;BME280;31062;49.678;24.560;2023-04-24T01:10:36;97696.81;;;9.87;59.93
45327;BME280;31062;49.678;24.560;2023-04-24T01:13:23;97702.63;;;9.91;60.04
45327;BME280;31062;49.678;24.560;2023-04-24T01:16:09;97702.91;;;9.95;60.40
45327;BME280;31062;49.678;24.560;2023-04-24T01:18:55;97696.53;;;9.83;60.69
45327;BME280;31062;49.678;24.560;2023-04-24T01:21:42;97690.13;;;9.71;60.88
45327;BME280;31062;49.678;24.560;2023-04-24T01:24:28;97516.41;;;8.44;61.47
45327;BME280;31062;49.678;24.560;2023-04-24T01:27:15;97552.34;;;8.64;61.40
45327;BME280;31062;49.678;24.560;2023-04-24T01:30:03;97504.28;;;8.30;61.80
45327;BME280;31062;49.678;24.560;2023-04-24T01:32:50;97695.34;;;9.57;61.61
45327;BME280;31062;49.678;24.560;2023-04-24T01:35:37;97693.31;;;9.58;61.64
45327;BME280;31062;49.678;24.560;2023-04-24T01:38:23;97519.28;;;8.37;61.49
45327;BME280;31062;49.678;24.560;2023-04-24T01:41:09;97710.94;;;9.62;61.07
45327;BME280;31062;49.678;24.560;2023-04-24T01:43:54;97580.00;;;8.83;60.86
45327;BME280;31062;49.678;24.560;2023-04-24T01:46:40;97648.44;;;9.30;61.18
45327;BME280;31062;49.678;24.560;2023-04-24T01:49:26;97715.16;;;9.54;60.72
45327;BME280;31062;49.678;24.560;2023-04-24T01:52:12;97646.84;;;9.27;60.73
45327;BME280;31062;49.678;24.560;2023-04-24T01:54:59;97604.19;;;8.92;60.92
45327;BME280;31062;49.678;24.560;2023-04-24T01:57:45;97683.94;;;9.24;61.85
45327;BME280;31062;49.678;24.560;2023-04-24T02:00:30;97689.75;;;9.09;62.71
45327;BME280;31062;49.678;24.560;2023-04-24T02:03:16;97499.56;;;7.67;62.43
45327;BME280;31062;49.678;24.560;2023-04-24T02:06:03;97647.13;;;8.56;62.55
45327;BME280;31062;49.678;24.560;2023-04-24T02:08:49;97588.19;;;8.08;63.26
45327;BME280;31062;49.678;24.560;2023-04-24T02:11:34;97472.44;;;7.20;62.84
45327;BME280;31062;49.678;24.560;2023-04-24T02:14:20;97652.13;;;8.31;62.82
45327;BME280;31062;49.678;24.560;2023-04-24T02:17:05;97679.38;;;8.44;63.59
45327;BME280;31062;49.678;24.560;2023-04-24T02:19:54;97652.34;;;7.99;63.52
45327;BME280;31062;49.678;24.560;2023-04-24T02:22:40;97632.16;;;7.96;63.68
45327;BME280;31062;49.678;24.560;2023-04-24T02:25:25;97670.66;;;8.21;64.05
45327;BME280;31062;49.678;24.560;2023-04-24T02:28:13;97631.41;;;7.96;63.99
45327;BME280;31062;49.678;24.560;2023-04-24T02:30:58;97720.50;;;8.23;63.11
45327;BME280;31062;49.678;24.560;2023-04-24T02:33:45;97594.34;;;7.45;64.12
45327;BME280;31062;49.678;24.560;2023-04-24T02:36:30;97495.19;;;6.93;64.08
45327;BME280;31062;49.678;24.560;2023-04-24T02:39:16;97614.75;;;7.76;64.59
45327;BME280;31062;49.678;24.560;2023-04-24T02:42:02;97593.19;;;7.65;65.25
45327;BME280;31062;49.678;24.560;2023-04-24T02:44:48;97664.97;;;8.19;64.21
45327;BME280;31062;49.678;24.560;2023-04-24T02:47:33;97667.88;;;8.21;63.94
45327;BME280;31062;49.678;24.560;2023-04-24T02:50:19;97674.50;;;8.35;63.67
45327;BME280;31062;49.678;24.560;2023-04-24T02:53:05;97670.19;;;8.42;63.73
45327;BME280;31062;49.678;24.560;2023-04-24T02:55:51;97660.16;;;8.46;63.71
45327;BME280;31062;49.678;24.560;2023-04-24T02:58:36;97484.50;;;7.24;63.92
45327;BME280;31062;49.678;24.560;2023-04-24T03:01:22;97515.53;;;7.42;63.96
45327;BME280;31062;49.678;24.560;2023-04-24T03:04:07;97543.53;;;7.65;63.51
45327;BME280;31062;49.678;24.560;2023-04-24T03:06:53;97471.38;;;7.15;63.36
45327;BME280;31062;49.678;24.560;2023-04-24T03:09:40;97532.50;;;7.65;63.88
45327;BME280;31062;49.678;24.560;2023-04-24T03:12:26;97511.22;;;7.49;63.23
45327;BME280;31062;49.678;24.560;2023-04-24T03:15:12;97624.66;;;8.33;63.48
45327;BME280;31062;49.678;24.560;2023-04-24T03:17:58;97663.38;;;8.52;63.00
45327;BME280;31062;49.678;24.560;2023-04-24T03:20:45;97497.31;;;7.29;62.97
45327;BME280;31062;49.678;24.560;2023-04-24T03:23:32;97568.53;;;7.67;62.78
45327;BME280;31062;49.678;24.560;2023-04-24T03:26:17;97667.16;;;8.20;63.15
45327;BME280;31062;49.678;24.560;2023-04-24T03:29:16;97658.19;;;8.03;63.09
45327;BME280;31062;49.678;24.560;2023-04-24T03:32:02;97460.28;;;6.44;64.45
45327;BME280;31062;49.678;24.560;2023-04-24T03:34:48;97628.28;;;7.38;65.00
45327;BME280;31062;49.678;24.560;2023-04-24T03:37:35;97598.28;;;6.90;65.84
45327;BME280;31062;49.678;24.560;2023-04-24T03:40:40;97511.03;;;6.34;66.12
45327;BME280;31062;49.678;24.560;2023-04-24T03:43:45;97638.16;;;7.07;65.97
45327;BME280;31062;49.678;24.560;2023-04-24T03:46:30;97567.09;;;6.46;66.22
45327;BME280;31062;49.678;24.560;2023-04-24T03:49:18;97666.69;;;7.19;66.60
45327;BME280;31062;49.678;24.560;2023-04-24T03:52:05;97479.69;;;5.87;67.11
45327;BME280;31062;49.678;24.560;2023-04-24T03:54:50;97429.28;;;5.60;67.63
45327;BME280;31062;49.678;24.560;2023-04-24T03:57:36;97658.56;;;7.04;67.63
45327;BME280;31062;49.678;24.560;2023-04-24T04:00:31;97617.22;;;7.04;67.90
45327;BME280;31062;49.678;24.560;2023-04-24T04:03:37;97591.44;;;6.91;67.77
45327;BME280;31062;49.678;24.560;2023-04-24T04:06:23;97678.78;;;7.41;67.54
45327;BME280;31062;49.678;24.560;2023-04-24T04:09:11;97653.22;;;7.57;67.60
45327;BME280;31062;49.678;24.560;2023-04-24T04:11:56;97602.31;;;7.24;67.96
45327;BME280;31062;49.678;24.560;2023-04-24T04:14:41;97550.28;;;6.93;68.55
45327;BME280;31062;49.678;24.560;2023-04-24T04:17:27;97663.28;;;7.79;68.49
45327;BME280;31062;49.678;24.560;2023-04-24T04:20:13;97515.13;;;6.84;68.52
45327;BME280;31062;49.678;24.560;2023-04-24T04:22:59;97498.59;;;6.84;68.72
45327;BME280;31062;49.678;24.560;2023-04-24T04:25:57;97629.47;;;7.89;68.08
45327;BME280;31062;49.678;24.560;2023-04-24T04:28:53;97618.09;;;8.02;68.13
45327;BME280;31062;49.678;24.560;2023-04-24T04:31:39;97473.06;;;7.28;67.14
45327;BME280;31062;49.678;24.560;2023-04-24T04:34:29;97655.59;;;8.68;66.72
45327;BME280;31062;49.678;24.560;2023-04-24T04:37:15;97652.56;;;8.74;66.21
45327;BME280;31062;49.678;24.560;2023-04-24T04:40:23;97540.81;;;8.02;65.93
45327;BME280;31062;49.678;24.560;2023-04-24T04:43:15;97625.63;;;8.65;66.45
45327;BME280;31062;49.678;24.560;2023-04-24T04:46:07;97661.22;;;8.97;66.41
45327;BME280;31062;49.678;24.560;2023-04-24T04:49:19;97659.63;;;9.13;66.73
45327;BME280;31062;49.678;24.560;2023-04-24T04:52:07;97481.81;;;8.07;66.46
45327;BME280;31062;49.678;24.560;2023-04-24T04:54:52;97468.78;;;8.17;66.34
45327;BME280;31062;49.678;24.560;2023-04-24T04:57:40;97656.91;;;9.71;66.12
45327;BME280;31062;49.678;24.560;2023-04-24T05:00:26;97511.94;;;8.97;66.23
45327;BME280;31062;49.678;24.560;2023-04-24T05:03:12;97618.94;;;10.02;65.98
45327;BME280;31062;49.678;24.560;2023-04-24T05:06:05;97653.75;;;10.65;65.21
45327;BME280;31062;49.678;24.560;2023-04-24T05:08:57;97557.50;;;10.35;64.16
45327;BME280;31062;49.678;24.560;2023-04-24T05:11:51;97650.78;;;11.25;63.56
45327;BME280;31062;49.678;24.560;2023-04-24T05:14:36;97637.66;;;11.58;62.82
45327;BME280;31062;49.678;24.560;2023-04-24T05:17:22;97628.88;;;11.95;61.62
45327;BME280;31062;49.678;24.560;2023-04-24T05:20:10;97565.34;;;11.77;60.32
45327;BME280;31062;49.678;24.560;2023-04-24T05:22:56;97609.28;;;12.37;59.56
45327;BME280;31062;49.678;24.560;2023-04-24T05:25:44;97466.44;;;11.72;58.38
45327;BME280;31062;49.678;24.560;2023-04-24T05:28:30;97652.63;;;13.24;57.75
45327;BME280;31062;49.678;24.560;2023-04-24T05:31:23;97493.13;;;12.47;56.32
45327;BME280;31062;49.678;24.560;2023-04-24T05:34:09;97627.78;;;13.65;55.89
45327;BME280;31062;49.678;24.560;2023-04-24T05:36:59;97592.81;;;13.62;55.52
45327;BME280;31062;49.678;24.560;2023-04-24T05:39:45;97645.72;;;14.12;54.72
45327;BME280;31062;49.678;24.560;2023-04-24T05:42:31;97595.78;;;14.16;54.94
45327;BME280;31062;49.678;24.560;2023-04-24T05:45:17;97618.31;;;14.59;53.38
45327;BME280;31062;49.678;24.560;2023-04-24T05:48:04;97630.19;;;14.87;53.62
45327;BME280;31062;49.678;24.560;2023-04-24T05:50:51;97469.81;;;14.06;50.64
45327;BME280;31062;49.678;24.560;2023-04-24T05:53:38;97589.44;;;15.09;51.00
45327;BME280;31062;49.678;24.560;2023-04-24T05:56:24;97451.47;;;14.28;50.05
45327;BME280;31062;49.678;24.560;2023-04-24T05:59:11;97612.09;;;15.45;50.02
45327;BME280;31062;49.678;24.560;2023-04-24T06:01:56;97616.13;;;15.56;50.30
45327;BME280;31062;49.678;24.560;2023-04-24T06:04:42;97617.97;;;15.65;49.99
45327;BME280;31062;49.678;24.560;2023-04-24T06:07:28;97624.38;;;15.67;49.82
45327;BME280;31062;49.678;24.560;2023-04-24T06:10:14;97576.22;;;15.53;49.55
45327;BME280;31062;49.678;24.560;2023-04-24T06:13:02;97463.63;;;14.76;49.21
45327;BME280;31062;49.678;24.560;2023-04-24T06:15:49;97439.56;;;14.69;49.04
45327;BME280;31062;49.678;24.560;2023-04-24T06:18:40;97609.72;;;15.82;49.61
45327;BME280;31062;49.678;24.560;2023-04-24T06:21:26;97482.25;;;15.01;48.76
45327;BME280;31062;49.678;24.560;2023-04-24T06:24:16;97604.88;;;15.99;48.61
45327;BME280;31062;49.678;24.560;2023-04-24T06:27:02;97433.06;;;14.94;48.46
45327;BME280;31062;49.678;24.560;2023-04-24T06:29:48;97608.84;;;15.93;48.61
45327;BME280;31062;49.678;24.560;2023-04-24T06:32:39;97598.41;;;16.10;48.23
45327;BME280;31062;49.678;24.560;2023-04-24T06:35:25;97610.69;;;16.18;47.79
45327;BME280;31062;49.678;24.560;2023-04-24T06:38:12;97583.25;;;15.99;48.05
45327;BME280;31062;49.678;24.560;2023-04-24T06:40:57;97569.91;;;15.98;48.57
45327;BME280;31062;49.678;24.560;2023-04-24T06:43:43;97508.56;;;15.55;48.15
45327;BME280;31062;49.678;24.560;2023-04-24T06:46:29;97607.28;;;16.20;47.67
45327;BME280;31062;49.678;24.560;2023-04-24T06:49:15;97617.00;;;16.19;47.63
45327;BME280;31062;49.678;24.560;2023-04-24T06:52:01;97444.59;;;15.02;47.30
45327;BME280;31062;49.678;24.560;2023-04-24T06:54:46;97557.59;;;15.73;47.84
45327;BME280;31062;49.678;24.560;2023-04-24T06:57:32;97618.53;;;16.22;48.04
45327;BME280;31062;49.678;24.560;2023-04-24T07:00:18;97609.06;;;16.13;47.90
45327;BME280;31062;49.678;24.560;2023-04-24T07:03:04;97453.41;;;15.26;48.60
45327;BME280;31062;49.678;24.560;2023-04-24T07:05:54;97461.19;;;15.43;48.01
45327;BME280;31062;49.678;24.560;2023-04-24T07:08:40;97611.78;;;16.58;47.33
45327;BME280;31062;49.678;24.560;2023-04-24T07:11:27;97603.50;;;16.60;46.91
45327;BME280;31062;49.678;24.560;2023-04-24T07:14:14;97566.22;;;16.40;47.68
45327;BME280;31062;49.678;24.560;2023-04-24T07:17:00;97574.41;;;16.52;46.07
45327;BME280;31062;49.678;24.560;2023-04-24T07:19:46;97608.53;;;16.80;46.83
45327;BME280;31062;49.678;24.560;2023-04-24T07:22:31;97463.13;;;15.85;46.10
45327;BME280;31062;49.678;24.560;2023-04-24T07:25:17;97562.53;;;16.67;45.75
45327;BME280;31062;49.678;24.560;2023-04-24T07:28:02;97432.50;;;15.87;46.36
45327;BME280;31062;49.678;24.560;2023-04-24T07:30:50;97594.47;;;17.11;45.63
45327;BME280;31062;49.678;24.560;2023-04-24T07:33:35;97616.56;;;17.21;46.37
45327;BME280;31062;49.678;24.560;2023-04-24T07:36:21;97610.50;;;17.26;45.59
45327;BME280;31062;49.678;24.560;2023-04-24T07:39:07;97562.38;;;17.14;44.82
45327;BME280;31062;49.678;24.560;2023-04-24T07:41:53;97530.94;;;16.98;45.36
45327;BME280;31062;49.678;24.560;2023-04-24T07:44:38;97488.91;;;16.80;45.81
45327;BME280;31062;49.678;24.560;2023-04-24T07:47:24;97552.41;;;17.27;44.23
45327;BME280;31062;49.678;24.560;2023-04-24T07:50:10;97430.75;;;16.45;44.39
45327;BME280;31062;49.678;24.560;2023-04-24T07:52:55;97597.66;;;17.54;44.67
45327;BME280;31062;49.678;24.560;2023-04-24T07:55:41;97577.09;;;17.66;44.20
45327;BME280;31062;49.678;24.560;2023-04-24T07:58:26;97592.69;;;17.71;44.30
45327;BME280;31062;49.678;24.560;2023-04-24T08:01:12;97570.22;;;17.69;44.13
45327;BME280;31062;49.678;24.560;2023-04-24T08:03:58;97557.47;;;17.66;44.46
45327;BME280;31062;49.678;24.560;2023-04-24T08:06:44;97508.94;;;17.26;43.46
45327;BME280;31062;49.678;24.560;2023-04-24T08:09:30;97541.38;;;17.66;43.60
45327;BME280;31062;49.678;24.560;2023-04-24T08:12:16;97501.03;;;17.38;43.29
45327;BME280;31062;49.678;24.560;2023-04-24T08:15:01;97551.13;;;17.83;43.57
45327;BME280;31062;49.678;24.560;2023-04-24T08:17:47;97413.00;;;16.90;43.25
45327;BME280;31062;49.678;24.560;2023-04-24T08:20:32;97544.63;;;17.96;43.55
45327;BME280;31062;49.678;24.560;2023-04-24T08:23:18;97471.38;;;17.50;43.28
45327;BME280;31062;49.678;24.560;2023-04-24T08:26:04;97545.22;;;18.12;42.86
45327;BME280;31062;49.678;24.560;2023-04-24T08:28:50;97520.97;;;18.01;42.32
45327;BME280;31062;49.678;24.560;2023-04-24T08:31:36;97540.31;;;18.13;42.48
45327;BME280;31062;49.678;24.560;2023-04-24T08:34:21;97476.56;;;17.76;41.87
45327;BME280;31062;49.678;24.560;2023-04-24T08:37:07;97461.63;;;17.69;41.91
45327;BME280;31062;49.678;24.560;2023-04-24T08:39:53;97513.84;;;17.98;41.30
45327;BME280;31062;49.678;24.560;2023-04-24T08:42:39;97364.44;;;17.01;41.28
45327;BME280;31062;49.678;24.560;2023-04-24T08:45:27;97548.84;;;18.34;40.90
45327;BME280;31062;49.678;24.560;2023-04-24T08:48:13;97523.72;;;18.39;40.73
45327;BME280;31062;49.678;24.560;2023-04-24T08:51:11;97540.06;;;18.44;41.09
45327;BME280;31062;49.678;24.560;2023-04-24T08:53:57;97508.97;;;18.38;40.99
45327;BME280;31062;49.678;24.560;2023-04-24T08:56:44;97388.66;;;17.67;40.87
45327;BME280;31062;49.678;24.560;2023-04-24T08:59:31;97374.06;;;17.71;40.96
45327;BME280;31062;49.678;24.560;2023-04-24T09:02:17;97394.34;;;17.89;41.15
45327;BME280;31062;49.678;24.560;2023-04-24T09:05:05;97494.06;;;18.73;40.40
45327;BME280;31062;49.678;24.560;2023-04-24T09:07:55;97515.91;;;18.96;40.07
45327;BME280;31062;49.678;24.560;2023-04-24T09:10:41;97514.81;;;19.05;39.87
45327;BME280;31062;49.678;24.560;2023-04-24T09:13:27;97517.22;;;19.15;39.17
45327;BME280;31062;49.678;24.560;2023-04-24T09:16:13;97388.25;;;18.36;38.39
45327;BME280;31062;49.678;24.560;2023-04-24T09:19:00;97515.72;;;19.34;38.57
45327;BME280;31062;49.678;24.560;2023-04-24T09:21:46;97409.19;;;18.74;38.25
45327;BME280;31062;49.678;24.560;2023-04-24T09:24:34;97364.63;;;18.43;37.75
45327;BME280;31062;49.678;24.560;2023-04-24T09:27:23;97491.91;;;19.37;38.07
45327;BME280;31062;49.678;24.560;2023-04-24T09:30:09;97457.13;;;19.02;37.01
45327;BME280;31062;49.678;24.560;2023-04-24T09:33:13;97518.06;;;19.63;38.21
45327;BME280;31062;49.678;24.560;2023-04-24T09:35:58;97446.38;;;19.40;36.18
45327;BME280;31062;49.678;24.560;2023-04-24T09:38:44;97513.59;;;19.78;35.82
45327;BME280;31062;49.678;24.560;2023-04-24T09:41:32;97497.59;;;19.84;35.31
45327;BME280;31062;49.678;24.560;2023-04-24T09:44:19;97355.81;;;18.96;35.30
45327;BME280;31062;49.678;24.560;2023-04-24T09:47:08;97478.47;;;19.79;35.62
45327;BME280;31062;49.678;24.560;2023-04-24T09:49:57;97455.59;;;19.67;35.73
45327;BME280;31062;49.678;24.560;2023-04-24T09:52:58;97483.72;;;19.90;35.69
45327;BME280;31062;49.678;24.560;2023-04-24T09:55:45;97480.97;;;19.92;35.14
45327;BME280;31062;49.678;24.560;2023-04-24T09:58:35;97485.16;;;19.91;33.55
45327;BME280;31062;49.678;24.560;2023-04-24T10:01:31;97478.88;;;19.93;32.73
45327;BME280;31062;49.678;24.560;2023-04-24T10:04:23;97469.72;;;19.92;32.94
45327;BME280;31062;49.678;24.560;2023-04-24T10:07:09;97352.72;;;19.10;34.44
45327;BME280;31062;49.678;24.560;2023-04-24T10:09:56;97459.91;;;19.93;33.55
45327;BME280;31062;49.678;24.560;2023-04-24T10:12:42;97458.72;;;20.01;33.37
45327;BME280;31062;49.678;24.560;2023-04-24T10:15:28;97465.72;;;20.00;33.30
45327;BME280;31062;49.678;24.560;2023-04-24T10:18:15;97401.13;;;19.54;33.67
45327;BME280;31062;49.678;24.560;2023-04-24T10:21:01;97462.91;;;20.00;31.99
45327;BME280;31062;49.678;24.560;2023-04-24T10:23:48;97308.22;;;19.00;32.97
45327;BME280;31062;49.678;24.560;2023-04-24T10:26:34;97469.84;;;19.96;32.98
45327;BME280;31062;49.678;24.560;2023-04-24T10:29:20;97431.69;;;19.89;33.38
45327;BME280;31062;49.678;24.560;2023-04-24T10:32:07;97418.84;;;19.84;32.95
45327;BME280;31062;49.678;24.560;2023-04-24T10:34:55;97386.22;;;19.73;32.73
45327;BME280;31062;49.678;24.560;2023-04-24T10:38:05;97316.28;;;19.36;33.03
45327;BME280;31062;49.678;24.560;2023-04-24T10:40:57;97426.16;;;20.19;32.40
45327;BME280;31062;49.678;24.560;2023-04-24T10:44:07;97431.97;;;20.25;33.29
45327;BME280;31062;49.678;24.560;2023-04-24T10:46:54;97368.22;;;19.84;33.09
45327;BME280;31062;49.678;24.560;2023-04-24T10:49:40;97462.44;;;20.33;33.59
45327;BME280;31062;49.678;24.560;2023-04-24T10:52:44;97410.59;;;20.42;31.79
45327;BME280;31062;49.678;24.560;2023-04-24T10:55:44;97406.41;;;20.43;30.75
45327;BME280;31062;49.678;24.560;2023-04-24T10:58:41;97448.28;;;20.57;29.04
45327;BME280;31062;49.678;24.560;2023-04-24T11:01:31;97416.56;;;20.54;31.37
45327;BME280;31062;49.678;24.560;2023-04-24T11:04:29;97433.75;;;20.66;31.66
45327;BME280;31062;49.678;24.560;2023-04-24T11:07:15;97402.81;;;20.68;32.44
45327;BME280;31062;49.678;24.560;2023-04-24T11:10:01;97272.53;;;19.80;30.37
45327;BME280;31062;49.678;24.560;2023-04-24T11:12:47;97385.44;;;20.48;29.78
45327;BME280;31062;49.678;24.560;2023-04-24T11:15:32;97378.41;;;20.49;29.37
45327;BME280;31062;49.678;24.560;2023-04-24T11:18:18;97265.13;;;19.67;31.11
45327;BME280;31062;49.678;24.560;2023-04-24T11:21:11;97350.84;;;20.18;31.40
45327;BME280;31062;49.678;24.560;2023-04-24T11:23:58;97434.09;;;20.53;30.50
45327;BME280;31062;49.678;24.560;2023-04-24T11:26:44;97400.72;;;20.41;30.73
45327;BME280;31062;49.678;24.560;2023-04-24T11:32:43;97349.66;;;19.99;33.09
45327;BME280;31062;49.678;24.560;2023-04-24T11:35:28;97290.06;;;19.53;32.60
45327;BME280;31062;49.678;24.560;2023-04-24T11:38:14;97368.88;;;20.09;30.26
45327;BME280;31062;49.678;24.560;2023-04-24T11:41:09;97402.59;;;20.32;30.07
45327;BME280;31062;49.678;24.560;2023-04-24T11:43:56;97255.16;;;19.36;30.90
45327;BME280;31062;49.678;24.560;2023-04-24T11:46:42;97392.19;;;20.37;30.15
45327;BME280;31062;49.678;24.560;2023-04-24T11:49:27;97227.44;;;19.25;30.46
45327;BME280;31062;49.678;24.560;2023-04-24T11:52:15;97390.34;;;20.22;30.58
45327;BME280;31062;49.678;24.560;2023-04-24T11:55:01;97364.91;;;20.18;30.86
45327;BME280;31062;49.678;24.560;2023-04-24T11:57:49;97376.84;;;20.42;31.42
45327;BME280;31062;49.678;24.560;2023-04-24T12:00:35;97376.13;;;20.42;30.96
45327;BME280;31062;49.678;24.560;2023-04-24T12:03:22;97363.91;;;20.33;30.06
45327;BME280;31062;49.678;24.560;2023-04-24T12:06:10;97230.53;;;19.35;30.33
45327;BME280;31062;49.678;24.560;2023-04-24T12:08:55;97227.66;;;19.33;30.20
45327;BME280;31062;49.678;24.560;2023-04-24T12:11:56;97333.75;;;20.10;30.64
45327;BME280;31062;49.678;24.560;2023-04-24T12:14:53;97342.00;;;20.02;29.95
45327;BME280;31062;49.678;24.560;2023-04-24T12:17:41;97353.75;;;20.22;29.82
45327;BME280;31062;49.678;24.560;2023-04-24T12:20:32;97313.03;;;19.97;30.06
45327;BME280;31062;49.678;24.560;2023-04-24T12:23:34;97311.72;;;20.00;29.99
45327;BME280;31062;49.678;24.560;2023-04-24T12:26:23;97349.66;;;20.27;29.96
45327;BME280;31062;49.678;24.560;2023-04-24T12:29:10;97315.28;;;20.03;29.83
45327;BME280;31062;49.678;24.560;2023-04-24T12:31:56;97331.88;;;20.18;30.15
45327;BME280;31062;49.678;24.560;2023-04-24T12:34:43;97318.16;;;20.05;30.46
45327;BME280;31062;49.678;24.560;2023-04-24T12:37:33;97270.66;;;19.89;30.24
45327;BME280;31062;49.678;24.560;2023-04-24T12:40:21;97263.75;;;19.94;28.95
45327;BME280;31062;49.678;24.560;2023-04-24T12:45:59;97326.03;;;20.38;29.98
45327;BME280;31062;49.678;24.560;2023-04-24T12:48:45;97184.34;;;19.42;30.29
45327;BME280;31062;49.678;24.560;2023-04-24T12:51:30;97315.00;;;20.46;28.65
45327;BME280;31062;49.678;24.560;2023-04-24T12:54:15;97274.78;;;20.14;28.83
45327;BME280;31062;49.678;24.560;2023-04-24T12:57:01;97173.97;;;19.46;29.24
45327;BME280;31062;49.678;24.560;2023-04-24T12:59:46;97320.53;;;20.42;28.44
45327;BME280;31062;49.678;24.560;2023-04-24T13:02:31;97166.16;;;19.45;29.90
45327;BME280;31062;49.678;24.560;2023-04-24T13:05:17;97299.47;;;20.45;29.89
45327;BME280;31062;49.678;24.560;2023-04-24T13:08:03;97300.88;;;20.44;29.69
45327;BME280;31062;49.678;24.560;2023-04-24T13:10:48;97218.34;;;19.78;29.53
45327;BME280;31062;49.678;24.560;2023-04-24T13:13:34;97278.44;;;20.20;28.45
45327;BME280;31062;49.678;24.560;2023-04-24T13:16:20;97154.59;;;19.33;28.44
45327;BME280;31062;49.678;24.560;2023-04-24T13:19:05;97146.63;;;19.23;28.61
45327;BME280;31062;49.678;24.560;2023-04-24T13:21:51;97278.97;;;20.13;29.14
45327;BME280;31062;49.678;24.560;2023-04-24T13:24:38;97297.38;;;20.18;28.17
45327;BME280;31062;49.678;24.560;2023-04-24T13:27:26;97153.78;;;19.28;28.46
45327;BME280;31062;49.678;24.560;2023-04-24T13:30:11;97277.63;;;20.16;27.71
45327;BME280;31062;49.678;24.560;2023-04-24T13:32:57;97253.06;;;19.88;28.48
45327;BME280;31062;49.678;24.560;2023-04-24T13:35:43;97239.00;;;19.88;27.87
45327;BME280;31062;49.678;24.560;2023-04-24T13:38:28;97257.78;;;20.10;28.47
45327;BME280;31062;49.678;24.560;2023-04-24T13:41:14;97265.78;;;20.19;29.09
45327;BME280;31062;49.678;24.560;2023-04-24T13:43:59;97269.25;;;20.18;29.54
45327;BME280;31062;49.678;24.560;2023-04-24T13:46:47;97229.56;;;20.06;29.28
45327;BME280;31062;49.678;24.560;2023-04-24T13:49:33;97230.38;;;20.10;28.56
45327;BME280;31062;49.678;24.560;2023-04-24T13:52:18;97215.56;;;20.08;29.27
45327;BME280;31062;49.678;24.560;2023-04-24T13:55:03;97199.78;;;19.96;28.96
45327;BME280;31062;49.678;24.560;2023-04-24T13:57:49;97252.66;;;20.30;29.03
45327;BME280;31062;49.678;24.560;2023-04-24T14:00:35;97247.09;;;20.32;27.98
45327;BME280;31062;49.678;24.560;2023-04-24T14:03:20;97112.69;;;19.43;27.76
45327;BME280;31062;49.678;24.560;2023-04-24T14:06:07;97102.72;;;19.38;27.14
45327;BME280;31062;49.678;24.560;2023-04-24T14:08:53;97181.50;;;19.95;26.74
45327;BME280;31062;49.678;24.560;2023-04-24T14:11:38;97167.00;;;19.77;26.98
45327;BME280;31062;49.678;24.560;2023-04-24T14:14:25;97234.19;;;20.23;27.34
45327;BME280;31062;49.678;24.560;2023-04-24T14:17:14;97224.22;;;20.18;27.40
45327;BME280;31062;49.678;24.560;2023-04-24T14:20:03;97201.13;;;19.93;27.64
45327;BME280;31062;49.678;24.560;2023-04-24T14:22:52;97083.72;;;19.08;27.53
45327;BME280;31062;49.678;24.560;2023-04-24T14:25:38;97210.44;;;20.00;27.62
45327;BME280;31062;49.678;24.560;2023-04-24T14:28:25;97245.16;;;20.11;28.34
45327;BME280;31062;49.678;24.560;2023-04-24T14:31:11;97225.41;;;20.09;27.70
45327;BME280;31062;49.678;24.560;2023-04-24T14:33:57;97225.25;;;20.03;27.94
45327;BME280;31062;49.678;24.560;2023-04-24T14:36:43;97199.06;;;19.96;27.85
45327;BME280;31062;49.678;24.560;2023-04-24T14:39:29;97189.88;;;19.93;27.13
45327;BME280;31062;49.678;24.560;2023-04-24T14:42:15;97104.44;;;19.49;26.98
45327;BME280;31062;49.678;24.560;2023-04-24T14:45:02;97148.03;;;19.78;25.75